createdAt,value
2023-05-05T00:00:17.617Z,1.60
2023-05-05T00:02:45.135Z,1.67
2023-05-05T00:05:12.645Z,1.70
2023-05-05T00:07:40.082Z,1.63
2023-05-05T00:10:07.925Z,1.83
2023-05-05T00:12:36.416Z,1.80
2023-05-05T00:15:03.880Z,2.00
2023-05-05T00:17:31.366Z,1.90
2023-05-05T00:19:59.809Z,1.97
2023-05-05T00:22:27.283Z,1.80
2023-05-05T00:24:54.763Z,1.70
2023-05-05T00:27:22.084Z,1.60
2023-05-05T00:29:49.487Z,1.50
2023-05-05T00:32:17.007Z,1.77
2023-05-05T00:34:44.550Z,1.67
2023-05-05T00:37:12.403Z,2.00
2023-05-05T00:39:39.846Z,1.77
2023-05-05T00:42:07.488Z,1.80
2023-05-05T00:44:45.031Z,1.90
2023-05-05T00:47:13.692Z,1.80
2023-05-05T00:49:41.119Z,1.87
2023-05-05T00:52:09.703Z,1.83
2023-05-05T00:54:37.371Z,1.80
2023-05-05T00:57:05.079Z,1.87
2023-05-05T00:59:33.846Z,1.90
2023-05-05T01:02:01.469Z,1.97
2023-05-05T01:04:28.886Z,1.87
2023-05-05T01:07:24.712Z,2.07
2023-05-05T01:10:11.030Z,1.80
2023-05-05T01:13:00.515Z,1.90
2023-05-05T01:15:31.214Z,2.10
2023-05-05T01:18:07.245Z,1.90
2023-05-05T01:20:39.485Z,1.63
2023-05-05T01:23:07.585Z,1.63
2023-05-05T01:25:53.387Z,1.80
2023-05-05T01:28:28.373Z,1.83
2023-05-05T01:31:03.953Z,1.70
2023-05-05T01:33:34.594Z,1.87
2023-05-05T01:36:08.410Z,1.70
2023-05-05T01:38:40.567Z,1.90
2023-05-05T01:41:10.731Z,1.70
2023-05-05T01:43:38.244Z,1.77
2023-05-05T01:46:07.166Z,1.67
2023-05-05T01:48:34.648Z,1.80
2023-05-05T01:51:03.165Z,2.13
2023-05-05T01:53:31.429Z,1.70
2023-05-05T01:55:59.567Z,2.57
2023-05-05T01:58:28.325Z,1.70
2023-05-05T02:00:57.476Z,1.60
2023-05-05T02:03:25.773Z,1.80
2023-05-05T02:05:55.013Z,1.73
2023-05-05T02:08:22.623Z,1.60
2023-05-05T02:10:50.926Z,1.70
2023-05-05T02:13:19.084Z,1.93
2023-05-05T02:15:47.027Z,1.83
2023-05-05T02:18:15.124Z,2.00
2023-05-05T02:20:42.764Z,1.80
2023-05-05T02:23:13.084Z,2.00
2023-05-05T02:25:44.765Z,1.90
2023-05-05T02:28:18.060Z,1.83
2023-05-05T02:30:48.491Z,1.93
2023-05-05T02:33:17.527Z,1.90
2023-05-05T02:35:46.775Z,1.87
2023-05-05T02:38:17.501Z,1.90
2023-05-05T02:40:46.569Z,1.90
2023-05-05T02:43:16.263Z,2.00
2023-05-05T02:45:43.768Z,1.93
2023-05-05T02:48:13.184Z,2.00
2023-05-05T02:50:40.864Z,2.17
2023-05-05T02:53:08.629Z,1.63
2023-05-05T02:55:51.418Z,1.53
2023-05-05T02:58:39.008Z,1.90
2023-05-05T03:01:06.317Z,1.60
2023-05-05T03:03:41.677Z,2.00
2023-05-05T03:06:14.603Z,2.30
2023-05-05T03:08:44.193Z,2.20
2023-05-05T03:11:26.529Z,1.87
2023-05-05T03:14:02.269Z,1.83
2023-05-05T03:16:30.626Z,2.00
2023-05-05T03:18:59.734Z,2.33
2023-05-05T03:21:27.553Z,1.90
2023-05-05T03:23:54.964Z,2.00
2023-05-05T03:26:22.582Z,2.00
2023-05-05T03:28:49.972Z,1.67
2023-05-05T03:31:17.964Z,1.67
2023-05-05T03:33:45.285Z,1.93
2023-05-05T03:36:12.896Z,2.20
2023-05-05T03:38:40.247Z,2.10
2023-05-05T03:41:07.648Z,1.70
2023-05-05T03:43:35.641Z,2.10
2023-05-05T03:46:03.134Z,1.80
2023-05-05T03:48:30.523Z,1.70
2023-05-05T03:50:58.037Z,1.80
2023-05-05T03:53:25.589Z,1.53
2023-05-05T03:55:53.008Z,2.07
2023-05-05T03:58:20.453Z,2.13
2023-05-05T04:00:47.848Z,2.07
2023-05-05T04:03:15.456Z,2.33
2023-05-05T04:05:43.136Z,1.90
2023-05-05T04:08:10.573Z,1.80
2023-05-05T04:10:37.963Z,1.90
2023-05-05T04:13:05.476Z,1.67
2023-05-05T04:15:32.970Z,1.70
2023-05-05T04:18:00.310Z,1.80
2023-05-05T04:20:27.773Z,2.20
2023-05-05T04:22:55.230Z,2.00
2023-05-05T04:25:22.616Z,1.80
2023-05-05T04:27:50.011Z,2.00
2023-05-05T04:30:17.444Z,1.73
2023-05-05T04:32:44.810Z,2.00
2023-05-05T04:35:12.295Z,2.27
2023-05-05T04:37:39.729Z,1.80
2023-05-05T04:40:08.308Z,2.27
2023-05-05T04:42:36.729Z,2.00
2023-05-05T04:45:04.373Z,1.60
2023-05-05T04:47:31.830Z,1.47
2023-05-05T04:49:59.246Z,1.80
2023-05-05T04:52:26.650Z,1.90
2023-05-05T04:54:55.058Z,2.17
2023-05-05T04:57:22.593Z,1.60
2023-05-05T04:59:50.049Z,2.00
2023-05-05T05:02:17.452Z,1.80
2023-05-05T05:04:44.884Z,2.73
2023-05-05T05:07:12.373Z,1.87
2023-05-05T05:09:39.805Z,2.20
2023-05-05T05:12:08.092Z,2.40
2023-05-05T05:14:38.971Z,2.30
2023-05-05T05:17:06.864Z,2.20
2023-05-05T05:19:37.406Z,2.10
2023-05-05T05:22:04.812Z,1.90
2023-05-05T05:24:32.283Z,2.00
2023-05-05T05:26:59.606Z,2.30
2023-05-05T05:29:27.334Z,2.20
2023-05-05T05:31:54.953Z,1.90
2023-05-05T05:34:22.361Z,2.20
2023-05-05T05:36:49.766Z,2.10
2023-05-05T05:39:17.165Z,2.50
2023-05-05T05:41:44.604Z,2.20
2023-05-05T05:44:11.975Z,2.70
2023-05-05T05:46:39.372Z,2.70
2023-05-05T05:49:06.884Z,2.10
2023-05-05T05:51:34.213Z,2.00
2023-05-05T05:54:01.543Z,2.10
2023-05-05T05:56:28.906Z,2.40
2023-05-05T05:58:56.727Z,2.37
2023-05-05T06:01:24.151Z,2.27
2023-05-05T06:03:51.741Z,2.27
2023-05-05T06:06:19.297Z,2.27
2023-05-05T06:08:46.669Z,2.80
2023-05-05T06:11:14.087Z,2.30
2023-05-05T06:13:42.222Z,2.17
2023-05-05T06:16:09.685Z,2.37
2023-05-05T06:18:37.629Z,2.23
2023-05-05T06:21:05.081Z,2.10
2023-05-05T06:23:32.442Z,2.30
2023-05-05T06:25:59.762Z,2.13
2023-05-05T06:28:27.126Z,2.00
2023-05-05T06:30:54.563Z,2.17
2023-05-05T06:33:21.896Z,2.70
2023-05-05T06:35:49.768Z,2.30
2023-05-05T06:38:17.165Z,2.60
2023-05-05T06:40:44.451Z,3.00
2023-05-05T06:43:12.072Z,3.37
2023-05-05T06:45:39.404Z,4.53
2023-05-05T06:48:06.793Z,4.90
2023-05-05T06:50:34.224Z,4.43
2023-05-05T06:53:01.624Z,3.53
2023-05-05T06:55:31.658Z,3.40
2023-05-05T06:57:59.100Z,3.30
2023-05-05T07:00:26.659Z,7.63
2023-05-05T07:02:54.059Z,4.20
2023-05-05T07:05:21.605Z,5.60
2023-05-05T07:07:55.741Z,6.47
2023-05-05T07:10:23.727Z,5.10
2023-05-05T07:12:51.940Z,5.10
2023-05-05T07:15:28.190Z,3.23
2023-05-05T07:17:58.501Z,2.80
2023-05-05T07:20:26.243Z,2.50
2023-05-05T07:22:53.733Z,2.43
2023-05-05T07:25:21.094Z,2.20
2023-05-05T07:27:48.633Z,2.30
2023-05-05T07:30:18.350Z,2.40
2023-05-05T07:32:46.498Z,2.40
2023-05-05T07:35:14.246Z,2.27
2023-05-05T07:37:41.651Z,2.20
2023-05-05T07:40:09.648Z,2.00
2023-05-05T07:42:37.285Z,2.30
2023-05-05T07:45:05.529Z,2.23
2023-05-05T07:47:36.267Z,2.10
2023-05-05T07:50:03.819Z,2.40
2023-05-05T07:52:45.034Z,2.07
2023-05-05T07:55:15.736Z,2.23
2023-05-05T07:57:43.120Z,1.83
2023-05-05T08:00:11.136Z,2.20
2023-05-05T08:02:38.996Z,2.30
2023-05-05T08:05:07.272Z,2.05
2023-05-05T08:07:36.612Z,1.90
2023-05-05T08:10:04.122Z,2.00
2023-05-05T08:12:31.593Z,2.40
2023-05-05T08:14:58.971Z,1.92
2023-05-05T08:17:27.344Z,1.90
2023-05-05T08:19:55.039Z,2.20
2023-05-05T08:22:23.166Z,1.83
2023-05-05T08:24:50.574Z,2.13
2023-05-05T08:27:18.077Z,2.30
2023-05-05T08:29:45.646Z,2.22
2023-05-05T08:32:13.060Z,2.15
2023-05-05T08:34:40.660Z,1.90
2023-05-05T08:37:08.138Z,2.10
2023-05-05T08:39:35.566Z,1.88
2023-05-05T08:42:03.946Z,1.63
2023-05-05T08:44:31.369Z,1.80
2023-05-05T08:46:59.127Z,1.83
2023-05-05T08:49:26.522Z,2.30
2023-05-05T08:51:55.169Z,2.00
2023-05-05T08:54:24.999Z,1.75
2023-05-05T08:56:53.110Z,1.90
2023-05-05T08:59:25.320Z,1.90
2023-05-05T09:01:54.369Z,1.75
2023-05-05T09:04:22.282Z,1.80
2023-05-05T09:06:49.769Z,1.58
2023-05-05T09:09:18.042Z,1.70
2023-05-05T09:11:46.204Z,1.52
2023-05-05T09:14:13.648Z,1.80
2023-05-05T09:16:42.343Z,1.90
2023-05-05T09:19:09.762Z,1.60
2023-05-05T09:21:41.090Z,1.80
2023-05-05T09:24:10.053Z,1.80
2023-05-05T09:26:42.310Z,1.65
2023-05-05T09:29:10.042Z,1.85
2023-05-05T09:31:38.082Z,2.03
2023-05-05T09:34:18.170Z,1.73
2023-05-05T09:36:49.527Z,1.92
2023-05-05T09:39:21.016Z,1.85
2023-05-05T09:41:48.524Z,1.63
2023-05-05T09:44:19.042Z,1.67
2023-05-05T09:46:55.333Z,1.58
2023-05-05T09:49:27.087Z,2.10
2023-05-05T09:51:55.288Z,1.65
2023-05-05T09:54:26.547Z,1.92
2023-05-05T09:56:54.328Z,2.15
2023-05-05T09:59:22.032Z,2.05
2023-05-05T10:01:50.170Z,1.60
2023-05-05T10:04:25.186Z,1.60
2023-05-05T10:06:52.802Z,1.60
2023-05-05T10:09:20.299Z,1.80
2023-05-05T10:11:47.995Z,1.67
2023-05-05T10:14:16.081Z,1.45
2023-05-05T10:16:50.994Z,1.67
2023-05-05T10:19:19.490Z,1.70
2023-05-05T10:21:59.592Z,1.70
2023-05-05T10:24:28.551Z,1.80
2023-05-05T10:26:57.893Z,1.77
2023-05-05T10:29:34.410Z,1.52
2023-05-05T10:32:24.426Z,1.70
2023-05-05T10:35:03.856Z,1.60
2023-05-05T10:37:31.744Z,1.90
2023-05-05T10:39:59.650Z,1.55
2023-05-05T10:42:27.945Z,1.58
2023-05-05T10:44:55.375Z,1.65
2023-05-05T10:47:23.775Z,1.50
2023-05-05T10:49:56.652Z,1.38
2023-05-05T10:52:29.012Z,1.50
2023-05-05T10:55:02.510Z,1.40
2023-05-05T10:57:30.445Z,1.60
2023-05-05T10:59:57.813Z,1.40
2023-05-05T11:02:28.924Z,1.70
2023-05-05T11:05:05.354Z,1.27
2023-05-05T11:07:37.096Z,1.70
2023-05-05T11:10:05.925Z,1.30
2023-05-05T11:12:36.050Z,1.88
2023-05-05T11:15:23.047Z,1.63
2023-05-05T11:17:51.259Z,1.40
2023-05-05T11:20:18.936Z,1.73
2023-05-05T11:23:04.843Z,1.45
2023-05-05T11:25:35.931Z,1.40
2023-05-05T11:28:07.046Z,1.50
2023-05-05T11:30:34.614Z,1.40
2023-05-05T11:33:20.653Z,1.48
2023-05-05T11:36:06.752Z,1.50
2023-05-05T11:38:37.374Z,1.60
2023-05-05T11:41:10.463Z,1.50
2023-05-05T11:43:42.421Z,1.60
2023-05-05T11:46:13.483Z,1.52
2023-05-05T11:48:53.048Z,1.70
2023-05-05T11:51:22.386Z,1.48
2023-05-05T11:53:51.075Z,1.45
2023-05-05T11:56:25.003Z,1.67
2023-05-05T11:59:09.984Z,1.50
2023-05-05T12:01:43.671Z,1.50
2023-05-05T12:04:14.857Z,1.50
2023-05-05T12:06:42.768Z,1.40
2023-05-05T12:09:16.954Z,1.60
2023-05-05T12:11:53.225Z,1.20
2023-05-05T12:14:21.141Z,1.40
2023-05-05T12:17:07.161Z,1.70
2023-05-05T12:19:34.652Z,1.15
2023-05-05T12:22:02.690Z,1.50
2023-05-05T12:24:33.288Z,1.42
2023-05-05T12:27:10.819Z,1.67
2023-05-05T12:29:38.362Z,1.48
2023-05-05T12:32:05.958Z,1.60
2023-05-05T12:34:33.662Z,1.42
2023-05-05T12:37:02.131Z,1.17
2023-05-05T12:39:41.376Z,1.40
2023-05-05T12:42:09.250Z,1.73
2023-05-05T12:44:37.385Z,1.30
2023-05-05T12:47:05.048Z,1.52
2023-05-05T12:49:35.484Z,1.75
2023-05-05T12:52:03.165Z,1.45
2023-05-05T12:54:30.618Z,1.70
2023-05-05T12:56:58.945Z,1.52
2023-05-05T12:59:27.770Z,1.50
2023-05-05T13:01:56.594Z,1.60
2023-05-05T13:04:25.133Z,1.58
2023-05-05T13:07:12.469Z,1.48
2023-05-05T13:09:40.227Z,1.40
2023-05-05T13:12:11.213Z,1.55
2023-05-05T13:14:39.170Z,1.42
2023-05-05T13:17:06.659Z,1.35
2023-05-05T13:19:35.856Z,1.50
2023-05-05T13:22:03.296Z,1.30
2023-05-05T13:24:42.781Z,1.40
2023-05-05T13:27:17.811Z,1.52
2023-05-05T13:29:45.183Z,1.77
2023-05-05T13:32:12.659Z,1.50
2023-05-05T13:34:40.125Z,1.48
2023-05-05T13:37:07.591Z,1.50
2023-05-05T13:39:34.968Z,1.48
2023-05-05T13:42:02.248Z,1.52
2023-05-05T13:44:29.615Z,1.50
2023-05-05T13:46:57.230Z,1.45
2023-05-05T13:49:24.803Z,1.55
2023-05-05T13:51:52.164Z,1.30
2023-05-05T13:54:19.732Z,1.30
2023-05-05T13:56:47.403Z,1.40
2023-05-05T13:59:14.810Z,1.27
2023-05-05T14:01:42.211Z,1.52
2023-05-05T14:04:09.623Z,1.45
2023-05-05T14:06:37.101Z,1.40
2023-05-05T14:09:06.419Z,1.40
2023-05-05T14:11:34.548Z,1.30
2023-05-05T14:14:02.057Z,1.15
2023-05-05T14:16:29.540Z,1.50
2023-05-05T14:18:57.089Z,1.67
2023-05-05T14:21:24.564Z,1.27
2023-05-05T14:23:52.566Z,1.40
2023-05-05T14:26:19.972Z,1.65
2023-05-05T14:28:49.760Z,1.20
2023-05-05T14:31:18.050Z,1.20
2023-05-05T14:33:45.450Z,1.40
2023-05-05T14:36:14.368Z,1.30
2023-05-05T14:38:43.092Z,1.77
2023-05-05T14:41:10.452Z,1.38
2023-05-05T14:43:38.152Z,1.75
2023-05-05T14:46:07.222Z,1.58
2023-05-05T14:48:34.926Z,1.40
2023-05-05T14:51:02.342Z,1.50
2023-05-05T14:53:29.861Z,1.63
2023-05-05T14:55:57.281Z,1.63
2023-05-05T14:58:24.862Z,1.70
2023-05-05T15:00:55.014Z,1.45
2023-05-05T15:03:22.535Z,1.50
2023-05-05T15:05:50.045Z,1.50
2023-05-05T15:08:19.242Z,1.45
2023-05-05T15:10:47.038Z,1.23
2023-05-05T15:13:14.671Z,1.67
2023-05-05T15:15:45.327Z,1.63
2023-05-05T15:18:12.779Z,1.60
2023-05-05T15:20:40.168Z,1.60
2023-05-05T15:23:07.607Z,1.60
2023-05-05T15:25:34.966Z,1.63
2023-05-05T15:28:02.366Z,1.60
2023-05-05T15:30:29.688Z,1.42
2023-05-05T15:32:57.267Z,1.42
2023-05-05T15:35:27.871Z,1.88
2023-05-05T15:37:55.447Z,1.63
2023-05-05T15:40:23.057Z,1.40
2023-05-05T15:42:50.613Z,1.67
2023-05-05T15:45:18.046Z,1.55
2023-05-05T15:47:48.303Z,1.60
2023-05-05T15:50:16.372Z,1.58
2023-05-05T15:52:43.765Z,1.48
2023-05-05T15:55:11.585Z,1.45
2023-05-05T15:57:42.125Z,1.23
2023-05-05T16:00:09.842Z,1.63
2023-05-05T16:02:37.198Z,1.70
2023-05-05T16:05:04.923Z,1.40
2023-05-05T16:07:32.603Z,1.77
2023-05-05T16:09:59.926Z,1.80
2023-05-05T16:12:27.518Z,1.67
2023-05-05T16:14:54.887Z,1.50
2023-05-05T16:17:22.802Z,1.67
2023-05-05T16:19:50.563Z,1.70
2023-05-05T16:22:18.092Z,1.48
2023-05-05T16:24:45.483Z,1.60
2023-05-05T16:27:12.898Z,1.60
2023-05-05T16:29:40.364Z,1.75
2023-05-05T16:32:07.762Z,1.77
2023-05-05T16:34:35.164Z,1.15
2023-05-05T16:37:02.526Z,1.60
2023-05-05T16:39:29.896Z,1.75
2023-05-05T16:41:57.320Z,1.60
2023-05-05T16:44:24.722Z,1.55
2023-05-05T16:46:52.092Z,2.00
2023-05-05T16:49:19.567Z,1.35
2023-05-05T16:51:49.962Z,1.70
2023-05-05T16:54:17.399Z,1.45
2023-05-05T16:56:44.843Z,1.40
2023-05-05T16:59:12.202Z,1.50
2023-05-05T17:01:39.620Z,1.60
2023-05-05T17:04:08.215Z,1.70
2023-05-05T17:06:35.602Z,1.30
2023-05-05T17:09:02.963Z,1.63
2023-05-05T17:11:30.359Z,1.50
2023-05-05T17:13:58.038Z,1.75
2023-05-05T17:16:25.552Z,1.60
2023-05-05T17:18:54.806Z,2.50
2023-05-05T17:21:22.121Z,2.00
2023-05-05T17:23:49.562Z,1.50
2023-05-05T17:26:16.917Z,1.88
2023-05-05T17:28:44.321Z,2.20
2023-05-05T17:31:12.614Z,1.92
2023-05-05T17:33:39.924Z,2.15
2023-05-05T17:36:07.665Z,1.60
2023-05-05T17:38:35.082Z,1.73
2023-05-05T17:41:03.606Z,2.30
2023-05-05T17:43:31.078Z,2.92
2023-05-05T17:45:58.608Z,3.55
2023-05-05T17:48:27.036Z,2.55
2023-05-05T17:50:54.848Z,2.90
2023-05-05T17:53:22.566Z,2.30
2023-05-05T17:55:49.966Z,2.10
2023-05-05T17:58:17.486Z,1.83
2023-05-05T18:00:44.928Z,2.00
2023-05-05T18:03:12.587Z,1.88
2023-05-05T18:05:40.167Z,2.00
2023-05-05T18:08:07.690Z,2.10
2023-05-05T18:10:35.078Z,2.13
2023-05-05T18:13:02.742Z,1.85
2023-05-05T18:15:30.219Z,1.85
2023-05-05T18:17:57.613Z,2.05
2023-05-05T18:20:24.949Z,2.00
2023-05-05T18:22:52.403Z,1.85
2023-05-05T18:25:19.769Z,1.65
2023-05-05T18:27:49.926Z,1.80
2023-05-05T18:30:17.367Z,2.05
2023-05-05T18:32:44.784Z,1.95
2023-05-05T18:35:12.812Z,2.13
2023-05-05T18:37:41.451Z,1.95
2023-05-05T18:40:10.189Z,1.77
2023-05-05T18:42:37.614Z,2.10
2023-05-05T18:45:05.489Z,1.70
2023-05-05T18:47:33.934Z,2.28
2023-05-05T18:50:01.673Z,2.22
2023-05-05T18:52:29.206Z,2.10
2023-05-05T18:54:56.542Z,1.90
2023-05-05T18:57:23.855Z,2.35
2023-05-05T18:59:51.420Z,2.38
2023-05-05T19:02:18.931Z,1.90
2023-05-05T19:04:46.454Z,2.30
2023-05-05T19:10:01.251Z,1.83
2023-05-05T19:12:28.691Z,1.95
2023-05-05T19:14:56.210Z,2.10
2023-05-05T19:17:23.585Z,2.03
2023-05-05T19:19:54.085Z,2.03
2023-05-05T19:22:23.553Z,1.63
2023-05-05T19:24:50.841Z,2.20
2023-05-05T19:27:18.280Z,1.83
2023-05-05T19:29:45.892Z,2.35
2023-05-05T19:32:13.359Z,1.80
2023-05-05T19:34:42.382Z,1.88
2023-05-05T19:37:09.739Z,1.95
2023-05-05T19:39:37.403Z,2.22
2023-05-05T19:42:04.885Z,2.10
2023-05-05T19:44:32.239Z,2.22
2023-05-05T19:46:59.691Z,4.78
2023-05-05T19:49:27.124Z,2.90
2023-05-05T19:51:54.652Z,2.10
2023-05-05T19:54:22.087Z,1.92
2023-05-05T19:56:49.477Z,1.92
2023-05-05T19:59:16.968Z,1.83
2023-05-05T20:01:44.488Z,1.63
2023-05-05T20:04:12.126Z,1.92
2023-05-05T20:06:39.570Z,1.98
2023-05-05T20:09:07.514Z,1.60
2023-05-05T20:11:35.887Z,1.83
2023-05-05T20:14:03.327Z,1.92
2023-05-05T20:16:31.448Z,1.80
2023-05-05T20:18:58.927Z,2.08
2023-05-05T20:21:27.261Z,2.03
2023-05-05T20:23:54.672Z,1.70
2023-05-05T20:26:22.522Z,1.58
2023-05-05T20:28:49.886Z,1.70
2023-05-05T20:31:17.555Z,1.92
2023-05-05T20:33:45.023Z,1.95
2023-05-05T20:36:12.460Z,1.83
2023-05-05T20:38:39.811Z,2.10
2023-05-05T20:41:07.174Z,1.80
2023-05-05T20:43:34.769Z,1.60
2023-05-05T20:46:02.886Z,1.60
2023-05-05T20:48:30.569Z,1.80
2023-05-05T20:50:59.007Z,2.00
2023-05-05T20:53:26.497Z,2.03
2023-05-05T20:55:53.915Z,1.70
2023-05-05T20:58:21.540Z,1.73
2023-05-05T21:00:49.060Z,1.60
2023-05-05T21:03:16.732Z,1.80
2023-05-05T21:05:44.928Z,1.88
2023-05-05T21:08:12.446Z,1.88
2023-05-05T21:10:40.083Z,1.58
2023-05-05T21:13:07.734Z,1.60
2023-05-05T21:15:37.387Z,2.10
2023-05-05T21:18:05.171Z,1.80
2023-05-05T21:20:32.640Z,2.00
2023-05-05T21:23:00.122Z,2.05
2023-05-05T21:25:27.648Z,1.55
2023-05-05T21:27:54.964Z,1.92
2023-05-05T21:30:23.886Z,1.70
2023-05-05T21:32:51.618Z,1.77
2023-05-05T21:35:19.010Z,1.67
2023-05-05T21:37:47.368Z,2.05
2023-05-05T21:40:16.408Z,1.90
2023-05-05T21:42:44.123Z,1.88
2023-05-05T21:45:12.065Z,1.73
2023-05-05T21:47:39.517Z,1.80
2023-05-05T21:50:07.605Z,1.88
2023-05-05T21:52:35.176Z,1.98
2023-05-05T21:55:02.605Z,2.20
2023-05-05T21:57:30.053Z,1.75
2023-05-05T21:59:57.375Z,1.80
2023-05-05T22:02:24.862Z,1.70
2023-05-05T22:04:52.691Z,1.65
2023-05-05T22:07:20.525Z,2.10
2023-05-05T22:09:47.926Z,1.55
2023-05-05T22:12:15.372Z,1.92
2023-05-05T22:14:42.846Z,1.67
2023-05-05T22:17:10.286Z,2.03
2023-05-05T22:19:40.768Z,1.80
2023-05-05T22:22:08.124Z,1.73
2023-05-05T22:24:35.446Z,1.75
2023-05-05T22:27:02.803Z,2.00
2023-05-05T22:29:30.248Z,1.90
2023-05-05T22:31:57.623Z,1.90
2023-05-05T22:34:25.967Z,1.92
2023-05-05T22:36:53.242Z,1.88
2023-05-05T22:39:20.686Z,2.00
2023-05-05T22:41:48.121Z,1.95
2023-05-05T22:44:15.655Z,2.13
2023-05-05T22:46:43.227Z,1.65
2023-05-05T22:49:10.993Z,1.83
2023-05-05T22:51:39.324Z,2.00
2023-05-05T22:54:06.809Z,1.70
2023-05-05T22:56:34.522Z,1.83
2023-05-05T22:59:01.884Z,2.00
2023-05-05T23:01:29.316Z,2.03
2023-05-05T23:03:59.796Z,1.80
2023-05-05T23:06:28.044Z,1.70
2023-05-05T23:08:55.444Z,2.38
2023-05-05T23:11:22.965Z,1.63
2023-05-05T23:13:50.603Z,1.73
2023-05-05T23:16:17.997Z,2.10
2023-05-05T23:18:45.570Z,1.63
2023-05-05T23:21:12.932Z,2.33
2023-05-05T23:23:40.291Z,2.00
2023-05-05T23:26:07.688Z,2.30
2023-05-05T23:28:35.573Z,1.70
2023-05-05T23:31:02.939Z,1.73
2023-05-05T23:33:30.369Z,1.83
2023-05-05T23:35:57.811Z,1.90
2023-05-05T23:38:25.170Z,1.53
2023-05-05T23:40:52.849Z,1.80
2023-05-05T23:43:20.547Z,1.93
2023-05-05T23:45:47.817Z,1.67
2023-05-05T23:48:15.219Z,1.93
2023-05-05T23:50:42.642Z,2.10
2023-05-05T23:53:10.349Z,1.77
2023-05-05T23:55:37.887Z,1.53
2023-05-05T23:58:05.368Z,1.67
